Time;durP1;ratioP1;P1;durP2;ratioP2;P2;SDS_P1;SDS_P2;PMS_P1;PMS_P2;Temp;Humidity;BMP_temperature;BMP_pressure;BME280_temperature;BME280_humidity;BME280_pressure;Samples;Min_cycle;Max_cycle;Signal;HPM_P1;HPM_P2
2022/12/12 00:01:49;;;;;;;29.10;24.83;;;0.90;49.60;;;;;;20612;6823;300683;-76
2022/12/12 00:04:14;;;;;;;27.37;24.37;;;1.10;49.40;;;;;;20601;6823;307513;-76
2022/12/12 00:06:41;;;;;;;24.70;19.70;;;1.30;48.70;;;;;;20812;6823;118519;-76
2022/12/12 00:09:08;;;;;;;27.43;19.60;;;1.30;48.60;;;;;;20821;6823;117446;-77
2022/12/12 00:11:32;;;;;;;23.70;16.90;;;1.10;48.90;;;;;;20829;6823;117276;-77
2022/12/12 00:13:57;;;;;;;24.90;17.20;;;0.90;49.30;;;;;;20832;6823;118166;-76
2022/12/12 00:16:23;;;;;;;25.95;22.58;;;0.70;49.70;;;;;;20625;6823;279008;-76
2022/12/12 00:18:48;;;;;;;24.53;19.17;;;0.80;49.90;;;;;;20807;6823;125241;-77
2022/12/12 00:21:14;;;;;;;21.98;16.67;;;0.80;49.60;;;;;;20822;6823;117350;-76
2022/12/12 00:23:40;;;;;;;26.67;22.40;;;0.60;49.60;;;;;;20607;6823;277652;-76
2022/12/12 00:26:06;;;;;;;28.15;23.87;;;1.00;48.90;;;;;;20609;6823;277341;-77
2022/12/12 00:28:31;;;;;;;27.47;20.03;;;1.00;48.90;;;;;;20792;6823;118323;-76
2022/12/12 00:30:57;;;;;;;22.55;18.60;;;0.90;48.50;;;;;;20822;6823;117584;-76
2022/12/12 00:33:23;;;;;;;29.30;25.37;;;0.60;48.80;;;;;;20615;6823;307198;-76
2022/12/12 00:35:48;;;;;;;28.30;25.33;;;0.60;49.20;;;;;;20614;6823;325017;-78
2022/12/12 00:38:14;;;;;;;28.23;24.87;;;0.80;48.90;;;;;;20609;6823;307563;-76
2022/12/12 00:40:39;;;;;;;26.43;23.63;;;1.00;48.40;;;;;;20593;6823;302278;-76
2022/12/12 00:43:05;;;;;;;27.40;24.43;;;1.20;47.70;;;;;;20614;6823;280190;-76
2022/12/12 00:45:31;;;;;;;23.43;18.97;;;1.10;47.50;;;;;;20827;6823;121226;-74
2022/12/12 00:47:57;;;;;;;24.17;18.90;;;1.10;47.50;;;;;;20816;6823;117887;-74
2022/12/12 00:50:22;;;;;;;25.45;22.75;;;0.80;48.10;;;;;;20607;6823;311201;-77
2022/12/12 00:52:48;;;;;;;22.70;19.80;;;0.70;48.10;;;;;;20809;6823;118269;-74
2022/12/12 00:55:14;;;;;;;23.58;18.95;;;0.30;48.10;;;;;;20823;6823;118355;-76
2022/12/12 00:57:40;;;;;;;25.20;17.47;;;0.30;48.30;;;;;;20827;6821;117706;-77
2022/12/12 01:00:06;;;;;;;23.55;17.77;;;0.00;48.60;;;;;;20828;6823;117201;-75
2022/12/12 01:02:31;;;;;;;25.67;19.50;;;-0.20;49.00;;;;;;20799;6823;119314;-75
2022/12/12 01:04:57;;;;;;;29.52;25.30;;;-0.30;49.40;;;;;;20612;6823;278461;-75
2022/12/12 01:07:23;;;;;;;27.93;20.67;;;-0.30;49.60;;;;;;20829;6823;118661;-75
2022/12/12 01:09:48;;;;;;;29.48;25.48;;;-0.20;49.50;;;;;;20611;6823;279986;-75
2022/12/12 01:12:14;;;;;;;26.70;20.97;;;-0.10;50.00;;;;;;20827;6823;118996;-75
2022/12/12 01:14:39;;;;;;;24.23;18.77;;;-0.10;49.20;;;;;;20827;6823;120390;-75
2022/12/12 01:17:05;;;;;;;27.50;19.57;;;-0.30;49.40;;;;;;20822;6823;117622;-75
2022/12/12 01:19:31;;;;;;;27.47;18.80;;;-0.60;50.50;;;;;;20812;6823;119455;-74
2022/12/12 01:21:57;;;;;;;24.97;17.77;;;-0.60;50.00;;;;;;20825;6823;118894;-74
2022/12/12 01:24:22;;;;;;;23.85;17.45;;;-0.70;50.20;;;;;;20831;6823;118306;-74
2022/12/12 01:26:48;;;;;;;24.17;17.47;;;-0.80;50.40;;;;;;20791;6823;117684;-74
2022/12/12 01:29:13;;;;;;;30.30;25.07;;;-0.90;50.60;;;;;;20610;6823;307972;-75
2022/12/12 01:31:40;;;;;;;25.97;20.73;;;-0.70;50.00;;;;;;20829;6823;120610;-74
2022/12/12 01:34:05;;;;;;;26.03;18.77;;;-0.70;50.40;;;;;;20817;6823;118736;-74
2022/12/12 01:36:31;;;;;;;24.77;17.17;;;-0.80;50.50;;;;;;20809;6823;117699;-75
2022/12/12 01:38:58;;;;;;;23.33;16.42;;;-0.90;50.70;;;;;;20822;6823;119254;-75
2022/12/12 01:41:22;;;;;;;32.13;24.40;;;-1.00;50.90;;;;;;20602;6823;309913;-74
2022/12/12 01:43:48;;;;;;;22.25;18.23;;;-0.80;50.80;;;;;;20821;6823;117482;-74
2022/12/12 01:46:21;;;;;;;18.23;16.27;;;-0.80;50.80;;;;;;20821;6823;118660;-74
2022/12/12 01:48:53;;;;;;;26.33;23.02;;;-0.90;50.80;;;;;;20593;6823;309578;-76
2022/12/12 01:51:20;;;;;;;24.37;18.67;;;-0.80;50.70;;;;;;20816;6823;119153;-77
2022/12/12 01:53:45;;;;;;;20.30;16.33;;;-0.70;50.40;;;;;;20817;6823;119488;-76
2022/12/12 01:56:11;;;;;;;27.02;21.60;;;-0.90;50.50;;;;;;20619;6823;308095;-76
2022/12/12 01:58:36;;;;;;;22.63;17.37;;;-0.80;51.00;;;;;;20807;6823;117689;-76
2022/12/12 02:01:02;;;;;;;27.33;22.05;;;-0.70;50.20;;;;;;20612;6823;280178;-76
2022/12/12 02:03:28;;;;;;;21.50;17.53;;;-0.60;50.10;;;;;;20828;6823;117602;-76
2022/12/12 02:05:54;;;;;;;23.05;16.83;;;-0.80;50.00;;;;;;20825;6823;120145;-77
2022/12/12 02:08:21;;;;;;;25.60;21.77;;;-0.80;50.00;;;;;;20601;6822;278253;-77
2022/12/12 02:10:46;;;;;;;27.25;22.90;;;-0.70;50.20;;;;;;20593;6823;310796;-76
2022/12/12 02:13:13;;;;;;;25.80;22.77;;;-0.20;48.40;;;;;;20610;6823;307554;-76
2022/12/12 02:15:41;;;;;;;23.40;18.10;;;-0.20;48.40;;;;;;20793;6823;119371;-75
2022/12/12 02:18:07;;;;;;;22.10;16.77;;;-0.30;48.30;;;;;;20811;6823;121535;-75
2022/12/12 02:20:42;;;;;;;24.97;16.10;;;-0.60;48.60;;;;;;20799;6823;121416;-76
2022/12/12 02:23:24;;;;;;;24.58;20.95;;;-0.90;49.10;;;;;;20605;6823;308467;-77
2022/12/12 02:26:15;;;;;;;21.83;17.33;;;-0.80;49.40;;;;;;20827;6823;117712;-75
2022/12/12 02:28:47;;;;;;;19.60;15.43;;;-0.90;49.20;;;;;;20809;6823;118481;-76
2022/12/12 02:31:19;;;;;;;23.67;16.83;;;-1.10;49.60;;;;;;20801;6823;120447;-75
2022/12/12 02:33:54;;;;;;;32.33;24.30;;;-1.30;50.00;;;;;;20574;6823;282026;-75
2022/12/12 02:36:20;;;;;;;61.50;27.07;;;-1.10;51.00;;;;;;20597;6823;307308;-75
2022/12/12 02:38:59;;;;;;;48.42;20.52;;;-0.80;49.70;;;;;;20788;6823;121106;-76
2022/12/12 02:41:38;;;;;;;62.27;18.93;;;-0.80;49.70;;;;;;20806;6823;117443;-75
2022/12/12 02:44:24;;;;;;;44.00;18.30;;;-1.20;50.50;;;;;;20816;6823;117996;-75
2022/12/12 02:47:06;;;;;;;30.40;17.47;;;-1.20;50.40;;;;;;20810;6823;117706;-77
2022/12/12 02:49:32;;;;;;;44.95;26.15;;;-1.30;50.90;;;;;;20590;6823;339314;-77
2022/12/12 02:51:57;;;;;;;90.13;28.57;;;-1.10;51.20;;;;;;20368;6823;312332;-74
2022/12/12 02:54:23;;;;;;;75.15;28.05;;;-0.80;50.70;;;;;;20520;6823;290835;-74
2022/12/12 02:56:51;;;;;;;38.95;20.20;;;-0.50;50.00;;;;;;20805;6823;121665;-74
2022/12/12 02:59:33;;;;;;;30.03;17.70;;;-0.50;49.80;;;;;;20819;6823;117609;-74
2022/12/12 03:01:59;;;;;;;31.85;25.35;;;-0.80;50.10;;;;;;20603;6823;279891;-74
2022/12/12 03:09:55;;;;;;;32.03;25.07;;;-0.50;49.90;;;;;;20384;6823;310681;-75
2022/12/12 03:12:38;;;;;;;33.73;26.27;;;-0.40;50.00;;;;;;20598;6823;307181;-74
2022/12/12 03:15:06;;;;;;;26.33;18.93;;;-0.20;49.60;;;;;;19790;6823;119492;-77
2022/12/12 03:17:33;;;;;;;27.53;19.00;;;-0.20;49.60;;;;;;20754;6823;117622;-75
2022/12/12 03:20:11;;;;;;;32.92;24.50;;;-0.50;49.90;;;;;;20562;6822;309456;-75
2022/12/12 03:22:39;;;;;;;29.50;23.67;;;-0.40;50.20;;;;;;20549;6823;281926;-76
2022/12/12 03:25:15;;;;;;;32.27;24.17;;;-0.20;49.80;;;;;;20574;6823;296114;-76
2022/12/12 03:27:53;;;;;;;31.93;18.33;;;0.10;49.20;;;;;;20774;6823;117955;-75
2022/12/12 03:30:20;;;;;;;31.10;17.67;;;0.00;49.10;;;;;;20758;6823;117287;-75
2022/12/12 03:32:54;;;;;;;32.40;24.42;;;-0.30;49.50;;;;;;20560;6823;299774;-74
2022/12/12 03:35:32;;;;;;;45.17;26.30;;;-0.30;49.70;;;;;;20544;6823;308262;-76
2022/12/12 03:37:59;;;;;;;27.90;18.67;;;-0.20;49.10;;;;;;20794;6823;118635;-74
2022/12/12 03:40:31;;;;;;;31.83;24.37;;;-0.20;49.10;;;;;;20292;6823;327475;-75
2022/12/12 03:43:00;;;;;;;28.60;18.87;;;-0.10;49.40;;;;;;20497;6823;118485;-75
2022/12/12 03:45:31;;;;;;;80.37;20.40;;;-0.20;49.40;;;;;;20787;6823;121409;-74
2022/12/12 03:48:00;;;;;;;25.97;16.87;;;-0.40;49.70;;;;;;20815;6823;117979;-75
2022/12/12 03:50:33;;;;;;;35.63;24.30;;;-0.60;50.10;;;;;;20568;6823;307981;-75
2022/12/12 03:52:59;;;;;;;28.40;17.97;;;-0.60;50.30;;;;;;20777;6823;118510;-74
2022/12/12 03:55:24;;;;;;;38.78;24.60;;;-0.60;50.10;;;;;;20559;6823;337048;-74
2022/12/12 03:57:52;;;;;;;29.60;18.83;;;-0.50;50.10;;;;;;20808;6823;117788;-75
2022/12/12 04:00:17;;;;;;;29.33;22.67;;;-0.50;50.00;;;;;;20575;6823;337508;-75
2022/12/12 04:02:50;;;;;;;30.47;18.07;;;-0.40;50.10;;;;;;20803;6823;118486;-75
2022/12/12 04:05:15;;;;;;;31.25;23.98;;;-0.40;50.00;;;;;;20593;6823;337069;-75
2022/12/12 04:07:41;;;;;;;30.07;18.53;;;-0.30;50.00;;;;;;20816;6823;118676;-74
2022/12/12 04:12:58;;;;;;;30.10;23.38;;;-0.50;50.10;;;;;;20609;6823;337476;-75
2022/12/12 04:15:37;;;;;;;25.87;18.17;;;-0.40;50.30;;;;;;20821;6823;118342;-75
2022/12/12 04:18:29;;;;;;;22.20;16.37;;;-0.40;50.00;;;;;;20828;6823;119009;-75
2022/12/12 04:23:51;;;;;;;25.27;16.40;;;-0.70;50.70;;;;;;20585;6823;117569;-75
2022/12/12 04:26:39;;;;;;;31.50;22.77;;;-0.90;50.90;;;;;;20607;6823;278837;-75
2022/12/12 04:29:11;;;;;;;30.92;23.10;;;-0.70;51.00;;;;;;20605;6823;317369;-76
2022/12/12 04:31:40;;;;;;;24.60;18.30;;;-0.40;50.30;;;;;;20814;6822;121532;-76
2022/12/12 04:34:10;;;;;;;30.17;23.07;;;-0.30;50.00;;;;;;20599;6823;280297;-76
2022/12/12 04:36:36;;;;;;;25.20;20.47;;;-0.10;49.30;;;;;;20563;6823;292075;-77
2022/12/12 04:39:02;;;;;;;21.60;18.10;;;-0.10;49.30;;;;;;20605;6823;278630;-74
2022/12/12 04:41:28;;;;;;;20.47;18.13;;;0.10;48.50;;;;;;20610;6823;307657;-74
2022/12/12 04:43:53;;;;;;;18.58;14.73;;;0.30;47.80;;;;;;20815;6823;117607;-74
2022/12/12 04:46:19;;;;;;;25.05;20.12;;;0.20;47.90;;;;;;20611;6823;278952;-74
2022/12/12 04:48:52;;;;;;;20.33;15.87;;;0.10;48.20;;;;;;20798;6823;117395;-75
2022/12/12 04:51:19;;;;;;;22.95;18.90;;;0.00;48.40;;;;;;20378;6823;307177;-75
2022/12/12 04:53:44;;;;;;;20.37;14.77;;;0.00;48.60;;;;;;20786;6823;117673;-75
2022/12/12 04:56:10;;;;;;;21.83;15.52;;;0.00;48.60;;;;;;20810;6823;117253;-74
2022/12/12 04:58:35;;;;;;;24.98;19.98;;;-0.20;48.90;;;;;;20583;6823;278477;-76
2022/12/12 05:01:11;;;;;;;22.33;19.47;;;-0.20;48.80;;;;;;20604;6823;301393;-75
2022/12/12 05:03:47;;;;;;;21.20;18.75;;;0.10;48.70;;;;;;20575;6823;280764;-76
2022/12/12 05:06:12;;;;;;;20.93;15.07;;;0.30;48.20;;;;;;20802;6823;117320;-77
2022/12/12 05:08:37;;;;;;;18.70;14.63;;;0.30;48.10;;;;;;20802;6823;118596;-76
2022/12/12 05:11:03;;;;;;;22.37;14.40;;;0.00;48.50;;;;;;20820;6823;117543;-75
2022/12/12 05:13:32;;;;;;;19.73;13.88;;;-0.20;49.00;;;;;;20818;6823;117733;-73
2022/12/12 05:15:58;;;;;;;19.93;17.83;;;-0.40;49.30;;;;;;20592;6823;284535;-74
2022/12/12 05:18:24;;;;;;;20.33;18.00;;;0.00;49.40;;;;;;20613;6823;280903;-74
2022/12/12 05:20:49;;;;;;;19.00;14.93;;;0.00;48.80;;;;;;20798;6823;119536;-73
2022/12/12 05:23:15;;;;;;;25.62;19.80;;;-0.10;48.40;;;;;;20780;6823;117312;-75
2022/12/12 05:25:40;;;;;;;24.73;20.57;;;-0.30;48.60;;;;;;20590;6823;308626;-74
2022/12/12 05:28:06;;;;;;;22.33;19.85;;;-0.30;48.50;;;;;;20602;6823;278995;-73
2022/12/12 05:30:32;;;;;;;17.83;15.48;;;0.00;48.30;;;;;;20787;6823;117922;-73
2022/12/12 05:32:57;;;;;;;20.90;14.57;;;-0.10;48.10;;;;;;20814;6823;118406;-75
2022/12/12 05:35:23;;;;;;;21.03;18.07;;;-0.30;48.40;;;;;;20591;6823;280653;-78
2022/12/12 05:37:49;;;;;;;17.37;13.80;;;-0.30;48.50;;;;;;20813;6823;120609;-80
2022/12/12 05:40:15;;;;;;;18.60;16.70;;;-0.30;48.50;;;;;;20602;6823;278086;-78
2022/12/12 05:42:41;;;;;;;20.53;17.77;;;-0.20;48.50;;;;;;20577;6822;308487;-78
2022/12/12 05:45:09;;;;;;;19.05;16.48;;;0.30;47.10;;;;;;20604;6823;336728;-76
2022/12/12 05:47:35;;;;;;;17.23;14.00;;;0.30;47.00;;;;;;20814;6823;117200;-76
2022/12/12 05:50:00;;;;;;;16.02;12.50;;;0.20;46.90;;;;;;20815;6823;118715;-76
2022/12/12 05:52:26;;;;;;;15.98;12.00;;;-0.20;47.30;;;;;;20802;6823;117732;-75
2022/12/12 05:54:53;;;;;;;13.10;9.60;;;-0.40;47.90;;;;;;20815;6823;118129;-84
2022/12/12 05:57:18;;;;;;;11.27;10.07;;;-0.60;48.40;;;;;;20797;6823;117265;-76
2022/12/12 05:59:44;;;;;;;11.77;9.93;;;-0.80;48.80;;;;;;20814;6823;117810;-76
2022/12/12 06:02:09;;;;;;;14.60;13.10;;;-0.90;49.10;;;;;;20612;6823;308068;-78
2022/12/12 06:04:35;;;;;;;15.13;13.53;;;-0.80;48.60;;;;;;20593;6823;278087;-76
2022/12/12 06:07:00;;;;;;;14.83;13.43;;;-0.50;47.80;;;;;;20597;6823;278195;-75
2022/12/12 06:09:26;;;;;;;14.57;13.07;;;-0.20;47.30;;;;;;20617;6823;308098;-75
2022/12/12 06:11:52;;;;;;;14.90;13.37;;;0.10;46.50;;;;;;20607;6823;310512;-75
2022/12/12 06:14:17;;;;;;;14.23;11.17;;;0.20;45.70;;;;;;20814;6823;68305;-76
2022/12/12 06:16:44;;;;;;;16.50;14.30;;;0.00;46.00;;;;;;20596;6823;278572;-75
2022/12/12 06:19:10;;;;;;;16.67;15.05;;;0.10;46.50;;;;;;20584;6823;278950;-77
2022/12/12 06:21:36;;;;;;;13.20;11.80;;;0.10;45.70;;;;;;20817;6823;117583;-77
2022/12/12 06:24:01;;;;;;;15.68;13.98;;;0.00;45.90;;;;;;20602;6823;300268;-77
2022/12/12 06:26:27;;;;;;;14.87;13.47;;;-0.10;46.40;;;;;;20570;6823;307782;-76
2022/12/12 06:28:52;;;;;;;15.10;13.50;;;0.10;46.80;;;;;;20613;6823;338256;-76
2022/12/12 06:31:18;;;;;;;13.20;10.67;;;0.30;45.90;;;;;;20821;6823;119016;-75
2022/12/12 06:33:43;;;;;;;10.63;9.50;;;0.10;45.80;;;;;;20829;6823;118264;-75
2022/12/12 06:36:10;;;;;;;10.30;9.25;;;-0.20;46.40;;;;;;20828;6823;117175;-76
2022/12/12 06:38:35;;;;;;;12.70;10.47;;;-0.40;47.00;;;;;;20797;6823;118740;-76
2022/12/12 06:41:10;;;;;;;10.70;9.63;;;-0.70;47.40;;;;;;20814;6823;117685;-76
2022/12/12 06:43:35;;;;;;;9.93;9.00;;;-0.80;47.90;;;;;;20806;6823;118450;-75
2022/12/12 06:46:01;;;;;;;14.10;12.63;;;-1.00;48.20;;;;;;20608;6823;280054;-76
2022/12/12 06:48:27;;;;;;;14.87;13.38;;;-0.50;47.90;;;;;;20565;6823;282176;-76
2022/12/12 06:50:53;;;;;;;13.17;11.07;;;-0.60;47.80;;;;;;20813;6823;118116;-75
2022/12/12 06:53:19;;;;;;;11.27;10.07;;;-0.70;47.70;;;;;;20815;6823;117546;-77
2022/12/12 06:55:45;;;;;;;13.07;9.77;;;-0.70;47.70;;;;;;20821;6822;122431;-74
2022/12/12 06:58:10;;;;;;;10.97;9.33;;;-0.80;48.10;;;;;;20827;6823;117315;-74
2022/12/12 07:00:36;;;;;;;15.17;13.67;;;-1.00;48.30;;;;;;20595;6823;279794;-75
2022/12/12 07:03:01;;;;;;;13.87;11.63;;;-0.90;48.30;;;;;;20826;6823;117653;-74
2022/12/12 07:05:27;;;;;;;15.30;13.77;;;-0.90;48.00;;;;;;20612;6823;294495;-75
2022/12/12 07:07:53;;;;;;;13.57;12.18;;;-0.70;47.70;;;;;;20837;6823;117803;-77
2022/12/12 07:10:19;;;;;;;17.33;15.57;;;-0.60;47.40;;;;;;20602;6823;309640;-76
2022/12/12 07:12:44;;;;;;;19.67;12.77;;;-0.60;47.30;;;;;;20793;6823;118660;-74
2022/12/12 07:15:11;;;;;;;14.18;12.30;;;-0.70;47.20;;;;;;20820;6823;118052;-74
2022/12/12 07:17:37;;;;;;;11.77;10.53;;;-0.80;47.50;;;;;;20816;6823;117730;-74
2022/12/12 07:20:03;;;;;;;13.20;10.60;;;-1.00;47.90;;;;;;20799;6823;119569;-74
2022/12/12 07:22:28;;;;;;;17.43;15.73;;;-1.10;48.40;;;;;;20585;6823;286161;-75
2022/12/12 07:24:54;;;;;;;18.52;16.62;;;-1.00;48.50;;;;;;20601;6823;279979;-74
2022/12/12 07:27:19;;;;;;;18.85;16.95;;;-0.70;48.10;;;;;;20595;6823;308387;-74
2022/12/12 07:29:46;;;;;;;18.48;16.58;;;-0.10;47.10;;;;;;20595;6823;278622;-74
2022/12/12 07:32:11;;;;;;;19.03;17.03;;;-0.20;47.00;;;;;;20606;6823;307033;-74
2022/12/12 07:34:37;;;;;;;19.50;17.42;;;0.00;46.70;;;;;;20585;6823;309517;-74
2022/12/12 07:37:03;;;;;;;19.57;17.53;;;0.20;46.60;;;;;;20609;6823;292973;-74
2022/12/12 07:39:31;;;;;;;26.17;21.17;;;0.30;46.50;;;;;;20820;6823;117342;-72
2022/12/12 07:41:57;;;;;;;27.50;24.55;;;0.10;46.40;;;;;;20582;6823;336396;-73
2022/12/12 07:44:22;;;;;;;25.63;22.83;;;0.10;46.90;;;;;;20606;6823;308104;-73
2022/12/12 07:46:48;;;;;;;22.97;20.13;;;0.20;46.60;;;;;;20589;6823;312499;-73
2022/12/12 07:49:15;;;;;;;27.40;19.03;;;0.40;46.50;;;;;;20831;6823;118419;-73
2022/12/12 07:51:41;;;;;;;19.87;17.70;;;0.20;46.80;;;;;;20607;6823;346952;-73
2022/12/12 07:54:07;;;;;;;19.93;17.30;;;0.20;46.70;;;;;;20821;6823;117259;-73
2022/12/12 07:56:33;;;;;;;16.85;15.05;;;-0.10;47.20;;;;;;20796;6823;117324;-73
2022/12/12 07:58:58;;;;;;;16.83;13.77;;;-0.10;47.20;;;;;;20811;6823;117541;-73
2022/12/12 08:01:24;;;;;;;19.02;14.10;;;-0.30;47.70;;;;;;20820;6823;118571;-73
2022/12/12 08:03:50;;;;;;;18.87;14.40;;;-0.50;48.10;;;;;;20811;6823;117370;-73
2022/12/12 08:06:15;;;;;;;16.87;13.57;;;-0.60;48.40;;;;;;20809;6822;118152;-73
2022/12/12 08:08:41;;;;;;;20.67;18.50;;;-0.70;48.80;;;;;;20574;6823;308165;-73
2022/12/12 08:11:06;;;;;;;27.00;19.00;;;-0.50;49.10;;;;;;20816;6823;117751;-73
2022/12/12 08:13:32;;;;;;;23.17;20.15;;;-0.40;48.90;;;;;;20599;6823;309253;-73
2022/12/12 08:15:57;;;;;;;17.37;15.40;;;-0.20;48.80;;;;;;20787;6823;117937;-73
2022/12/12 08:18:23;;;;;;;22.97;19.93;;;-0.10;48.50;;;;;;20608;6823;278459;-73
2022/12/12 08:20:49;;;;;;;22.92;20.50;;;0.00;48.60;;;;;;20582;6823;277874;-73
2022/12/12 08:23:15;;;;;;;23.23;20.77;;;0.30;48.30;;;;;;20585;6823;278509;-73
2022/12/12 08:25:41;;;;;;;21.10;16.37;;;0.60;47.80;;;;;;20815;6823;117144;-76
2022/12/12 08:28:07;;;;;;;18.80;14.97;;;0.50;47.50;;;;;;20818;6823;117650;-74
2022/12/12 08:30:33;;;;;;;26.42;18.67;;;0.10;48.30;;;;;;20794;6823;117827;-75
2022/12/12 08:32:58;;;;;;;22.87;19.83;;;0.10;48.30;;;;;;20610;6823;282911;-78
2022/12/12 08:35:24;;;;;;;22.77;20.37;;;0.20;48.70;;;;;;20608;6823;311897;-76
2022/12/12 08:37:50;;;;;;;23.70;21.17;;;0.50;48.20;;;;;;20608;6823;336793;-77
2022/12/12 08:40:16;;;;;;;22.43;20.07;;;0.80;47.50;;;;;;20609;6823;307211;-76
2022/12/12 08:42:41;;;;;;;20.97;16.47;;;1.00;47.10;;;;;;20786;6823;117490;-76
2022/12/12 08:45:07;;;;;;;23.67;20.17;;;0.90;46.90;;;;;;20607;6823;313406;-76
2022/12/12 08:47:32;;;;;;;19.97;15.93;;;0.90;47.10;;;;;;20805;6823;117299;-77
2022/12/12 08:49:59;;;;;;;19.58;15.68;;;0.50;47.50;;;;;;20806;6823;119214;-76
2022/12/12 08:52:24;;;;;;;24.17;21.03;;;0.40;47.40;;;;;;20586;6823;278044;-77
2022/12/12 08:54:50;;;;;;;21.10;15.90;;;0.50;48.20;;;;;;20794;6823;117736;-77
2022/12/12 08:57:16;;;;;;;25.60;22.77;;;0.40;47.70;;;;;;20594;6823;308039;-77
2022/12/12 08:59:42;;;;;;;25.40;22.70;;;0.50;47.90;;;;;;20590;6823;310925;-78
2022/12/12 09:02:08;;;;;;;24.95;22.08;;;0.80;47.90;;;;;;20599;6823;311179;-78
2022/12/12 09:04:34;;;;;;;26.70;23.07;;;1.00;48.00;;;;;;20586;6823;279221;-76
2022/12/12 09:06:59;;;;;;;22.30;16.58;;;1.20;47.00;;;;;;20815;6823;117620;-77
2022/12/12 09:09:25;;;;;;;23.13;20.60;;;1.10;47.10;;;;;;20596;6823;311399;-77
2022/12/12 09:11:53;;;;;;;19.30;16.93;;;1.10;47.20;;;;;;20810;6823;117204;-76
2022/12/12 09:14:19;;;;;;;20.13;15.97;;;1.00;48.00;;;;;;20807;6823;117322;-77
2022/12/12 09:16:44;;;;;;;17.97;14.37;;;0.80;47.70;;;;;;20799;6823;118401;-77
2022/12/12 09:19:10;;;;;;;24.10;21.27;;;0.70;48.10;;;;;;20596;6822;310472;-75
2022/12/12 09:21:37;;;;;;;20.40;16.77;;;0.70;48.20;;;;;;20816;6823;118364;-77
2022/12/12 09:24:02;;;;;;;23.80;21.37;;;0.80;48.10;;;;;;20602;6823;287901;-77
2022/12/12 09:26:28;;;;;;;24.77;22.27;;;0.90;48.30;;;;;;20592;6823;307649;-78
2022/12/12 09:28:53;;;;;;;23.87;21.40;;;1.20;47.90;;;;;;20608;6823;307692;-78
2022/12/12 09:31:20;;;;;;;23.40;21.02;;;1.40;47.30;;;;;;20609;6823;309247;-79
2022/12/12 09:33:46;;;;;;;18.17;15.67;;;1.60;47.10;;;;;;20821;6823;117554;-75
2022/12/12 09:36:11;;;;;;;19.80;16.13;;;1.60;47.10;;;;;;20814;6823;117506;-77
2022/12/12 09:38:37;;;;;;;18.77;14.52;;;1.40;47.50;;;;;;20789;6823;117458;-78
2022/12/12 09:41:08;;;;;;;15.23;12.73;;;1.30;48.10;;;;;;20824;6823;117414;-80
2022/12/12 09:43:44;;;;;;;15.63;13.37;;;1.20;48.40;;;;;;20806;6823;118038;-77
2022/12/12 09:46:09;;;;;;;20.13;18.03;;;1.20;48.80;;;;;;20576;6823;350639;-77
2022/12/12 09:48:41;;;;;;;19.37;15.00;;;1.40;48.20;;;;;;20784;6823;119617;-77
2022/12/12 09:51:08;;;;;;;19.80;18.00;;;1.90;47.30;;;;;;20589;6823;308030;-81
2022/12/12 09:53:33;;;;;;;17.50;15.27;;;1.90;47.30;;;;;;20814;6823;117283;-78
2022/12/12 09:56:03;;;;;;;19.40;17.40;;;2.00;47.00;;;;;;20574;6823;310972;-79
2022/12/12 09:58:38;;;;;;;16.17;14.03;;;2.20;46.90;;;;;;20753;6823;118151;-79
2022/12/12 10:01:04;;;;;;;19.17;17.17;;;2.30;46.80;;;;;;20567;6823;278865;-79
2022/12/12 10:03:56;;;;;;;14.93;13.30;;;2.40;45.80;;;;;;20813;6823;118456;-80
2022/12/12 10:06:22;;;;;;;19.97;18.07;;;2.40;45.80;;;;;;20614;6823;310421;-80
2022/12/12 10:09:07;;;;;;;18.73;16.87;;;2.40;45.40;;;;;;20585;6823;281198;-79
2022/12/12 10:11:49;;;;;;;17.50;15.80;;;2.60;45.00;;;;;;20580;6823;309248;-78
2022/12/12 10:14:28;;;;;;;14.70;13.13;;;2.80;44.50;;;;;;20818;6823;118274;-81
2022/12/12 10:16:55;;;;;;;17.73;13.50;;;2.70;44.70;;;;;;20807;6823;117475;-79
2022/12/12 10:19:24;;;;;;;13.37;11.97;;;2.40;45.40;;;;;;20801;6823;117258;-80
2022/12/12 10:21:50;;;;;;;18.40;16.50;;;2.20;45.60;;;;;;20595;6823;309470;-81
2022/12/12 10:24:27;;;;;;;17.43;13.53;;;2.20;45.70;;;;;;20799;6823;118437;-80
2022/12/12 10:26:53;;;;;;;16.73;13.47;;;2.20;45.70;;;;;;20802;6823;119450;-79
2022/12/12 10:29:19;;;;;;;18.47;16.57;;;2.20;46.10;;;;;;20597;6822;307504;-79
2022/12/12 10:31:54;;;;;;;19.42;17.52;;;2.10;45.70;;;;;;20594;6823;311944;-79
2022/12/12 10:34:57;;;;;;;19.55;17.65;;;2.70;44.40;;;;;;20587;6823;307625;-80
2022/12/12 10:37:59;;;;;;;20.10;18.10;;;2.70;44.40;;;;;;20601;6823;317519;-79
2022/12/12 10:40:34;;;;;;;21.37;19.23;;;2.90;44.70;;;;;;20581;6823;307622;-80
2022/12/12 10:43:13;;;;;;;20.40;15.27;;;3.10;43.40;;;;;;20810;6823;117441;-78
2022/12/12 10:45:49;;;;;;;19.92;17.85;;;3.00;43.70;;;;;;20574;6823;278051;-78
2022/12/12 10:48:15;;;;;;;19.80;17.80;;;2.90;43.40;;;;;;20584;6823;339483;-80
2022/12/12 10:50:43;;;;;;;19.87;17.77;;;3.10;43.60;;;;;;20568;6823;290086;-78
2022/12/12 10:53:10;;;;;;;18.13;15.10;;;3.10;43.40;;;;;;20788;6823;117707;-79
2022/12/12 10:55:45;;;;;;;17.50;13.80;;;3.10;43.40;;;;;;20804;6823;117718;-78
2022/12/12 10:58:11;;;;;;;19.30;17.30;;;2.90;44.30;;;;;;20590;6823;310546;-79
2022/12/12 11:00:38;;;;;;;20.37;18.27;;;2.90;44.20;;;;;;20586;6823;310816;-78
2022/12/12 11:03:10;;;;;;;20.47;14.63;;;3.10;43.60;;;;;;20781;6823;117446;-77
2022/12/12 11:05:35;;;;;;;16.17;13.87;;;3.10;43.70;;;;;;20571;6823;117656;-74
2022/12/12 11:08:01;;;;;;;20.20;17.95;;;2.80;44.20;;;;;;20581;6823;308921;-77
2022/12/12 11:10:30;;;;;;;17.40;15.07;;;2.80;44.30;;;;;;20787;6823;118222;-75
2022/12/12 11:12:56;;;;;;;17.17;13.90;;;2.80;44.50;;;;;;20810;6823;117508;-74
2022/12/12 11:15:24;;;;;;;19.98;13.65;;;2.40;45.00;;;;;;20793;6823;117362;-74
2022/12/12 11:17:50;;;;;;;21.27;14.33;;;2.30;44.90;;;;;;20775;6823;117661;-75
2022/12/12 11:20:15;;;;;;;16.67;13.27;;;2.10;45.20;;;;;;20796;6823;118211;-75
2022/12/12 11:22:41;;;;;;;19.23;17.17;;;1.90;45.40;;;;;;20582;6823;308452;-75
2022/12/12 11:25:06;;;;;;;21.43;18.50;;;2.00;45.60;;;;;;20615;6823;282979;-73
2022/12/12 11:27:39;;;;;;;21.87;18.40;;;2.30;45.10;;;;;;20559;6823;278946;-73
2022/12/12 11:30:08;;;;;;;17.67;14.43;;;2.60;44.60;;;;;;20801;6823;119424;-75
2022/12/12 11:32:36;;;;;;;18.70;16.70;;;2.50;44.70;;;;;;20264;6823;308146;-74
2022/12/12 11:35:02;;;;;;;15.33;13.70;;;2.60;45.20;;;;;;20780;6823;122516;-73
2022/12/12 11:37:28;;;;;;;16.70;12.48;;;2.60;45.20;;;;;;20799;6823;117708;-76
2022/12/12 11:39:53;;;;;;;18.05;16.08;;;2.50;45.60;;;;;;20579;6823;278631;-73
2022/12/12 11:42:29;;;;;;;17.40;13.87;;;2.60;45.10;;;;;;20820;6821;117548;-72
2022/12/12 11:44:58;;;;;;;15.33;12.80;;;2.60;45.10;;;;;;20820;6823;118323;-74
2022/12/12 11:47:23;;;;;;;16.50;12.90;;;2.60;45.60;;;;;;20788;6823;117470;-75
2022/12/12 11:49:49;;;;;;;19.23;16.33;;;2.50;46.00;;;;;;20603;6823;307672;-73
2022/12/12 11:52:19;;;;;;;17.50;14.27;;;2.70;46.10;;;;;;20780;6823;117228;-72
2022/12/12 11:54:44;;;;;;;15.67;12.90;;;2.70;46.10;;;;;;20755;6823;117565;-73
2022/12/12 11:57:19;;;;;;;18.37;16.33;;;2.70;46.40;;;;;;20599;6823;282121;-77
2022/12/12 11:59:56;;;;;;;17.80;16.10;;;2.80;45.90;;;;;;20533;6823;307199;-78
2022/12/12 12:02:26;;;;;;;17.02;15.43;;;3.10;45.10;;;;;;20542;6823;308036;-76
2022/12/12 12:05:04;;;;;;;17.37;15.60;;;3.40;44.30;;;;;;19984;6823;336812;-76
2022/12/12 12:07:49;;;;;;;16.23;14.53;;;3.60;43.30;;;;;;20594;6823;277622;-77
2022/12/12 12:10:35;;;;;;;18.20;15.73;;;3.80;42.60;;;;;;20577;6823;311102;-76
2022/12/12 12:13:03;;;;;;;18.75;16.75;;;3.90;42.60;;;;;;20612;6823;278482;-76
2022/12/12 12:15:32;;;;;;;15.97;12.33;;;3.80;42.90;;;;;;20770;6823;117313;-77
2022/12/12 12:18:08;;;;;;;16.40;12.07;;;3.80;42.50;;;;;;20791;6823;120376;-75
2022/12/12 12:20:50;;;;;;;17.50;15.50;;;3.50;43.30;;;;;;20559;6823;308603;-77
2022/12/12 12:23:26;;;;;;;18.12;15.40;;;3.50;42.70;;;;;;20583;6823;307530;-75
2022/12/12 12:25:55;;;;;;;16.03;14.40;;;3.70;42.30;;;;;;20586;6823;277683;-75
2022/12/12 12:28:36;;;;;;;18.30;15.10;;;3.80;41.80;;;;;;20583;6823;339469;-75
2022/12/12 12:31:18;;;;;;;16.13;14.43;;;4.00;41.80;;;;;;20587;6823;280860;-76
2022/12/12 12:34:03;;;;;;;15.17;13.67;;;4.10;41.40;;;;;;20588;6823;278280;-76
2022/12/12 12:36:36;;;;;;;15.13;13.62;;;4.20;40.50;;;;;;20552;6823;337505;-77
2022/12/12 12:39:02;;;;;;;15.57;13.90;;;4.30;40.50;;;;;;20568;6823;309893;-75
2022/12/12 12:41:41;;;;;;;15.65;12.75;;;4.20;41.30;;;;;;20802;6823;117778;-76